Farnborough Airfield Local Observations

Local weather if you're flying!

These are the latest observations provided as METAR data from Farnborough Airfield. Farnborough (ICAO code: EGLF) is the local airport but is not open 24 hours and only publishes its observation data when it is open.

Current Observation Data

Farnborough, United Kingdom (EGLF) 51-17N 000-46W 0M Feb 03, 2020 - 04:50 AM EST / 2020.02.03 0950 UTC Wind: from the SW (230 degrees) at 16 MPH (14 KT):0 Visibility: greater than 7 mile(s):0 Temperature: 48 F (9 C) Dew Point: 42 F (6 C) Relative Humidity: 81% Pressure (altimeter): 29.97 in. Hg (1015 hPa) ob: EGLF 030950Z AUTO 23014KT 9999 NCD 09/06 Q1015 cycle: 10

You can read more about the airfield on Wikipedia here